Time;durP1;ratioP1;P1;durP2;ratioP2;P2;SDS_P1;SDS_P2;PMS_P1;PMS_P2;Temp;Humidity;BMP_temperature;BMP_pressure;BME280_temperature;BME280_humidity;BME280_pressure;Samples;Min_cycle;Max_cycle;Signal;HPM_P1;HPM_P2
2022/02/22 00:00:14;;;;;;;;;;;22.90;40.80;;;;;;680886;29;764;-89
2022/02/22 00:00:35;;;;;;;;;;;23.00;40.90;;;;;;683228;28;987;-84
2022/02/22 00:00:56;;;;;;;;;;;22.90;40.80;;;;;;683398;29;1245;-89
2022/02/22 00:01:16;;;;;;;;;;;22.90;40.80;;;;;;683486;29;1154;-87
2022/02/22 00:01:37;;;;;;;;;;;22.90;40.80;;;;;;684133;28;1477;-88
2022/02/22 00:01:57;;;;;;;;;;;22.90;40.80;;;;;;686101;28;1328;-86
2022/02/22 00:02:18;;;;;;;;;;;23.00;40.90;;;;;;686170;28;1284;-87
2022/02/22 00:02:40;;;;;;;;;;;22.90;40.90;;;;;;686141;28;1123;-88
2022/02/22 00:03:00;;;;;;;;;;;23.00;40.90;;;;;;685764;28;1430;-88
2022/02/22 00:03:22;;;;;;;;;;;22.90;40.80;;;;;;683435;29;1245;-86
2022/02/22 00:03:43;;;;;;;;;;;22.90;40.90;;;;;;683337;28;1405;-87
2022/02/22 00:04:04;;;;;;;;;;;22.90;40.80;;;;;;680726;29;1353;-86
2022/02/22 00:04:26;;;;;;;;;;;22.90;40.90;;;;;;680793;29;1582;-88
2022/02/22 00:04:47;;;;;;;;;;;22.90;40.80;;;;;;681003;29;812;-88
2022/02/22 00:05:09;;;;;;;;;;;22.90;40.80;;;;;;680815;29;1191;-88
2022/02/22 00:05:30;;;;;;;;;;;22.90;40.90;;;;;;681509;29;1356;-86
2022/02/22 00:05:50;;;;;;;;;;;22.90;40.80;;;;;;681824;29;1206;-88
2022/02/22 00:06:11;;;;;;;;;;;23.00;41.00;;;;;;680044;29;1108;-89
2022/02/22 00:06:32;;;;;;;;;;;22.90;40.90;;;;;;675661;29;1104;-89
2022/02/22 00:06:52;;;;;;;;;;;22.90;40.80;;;;;;675771;29;1183;-89
2022/02/22 00:07:13;;;;;;;;;;;23.00;40.90;;;;;;675973;29;1316;-89
2022/02/22 00:07:34;;;;;;;;;;;22.90;42.00;;;;;;678570;29;1120;-87
2022/02/22 00:07:54;;;;;;;;;;;23.00;40.90;;;;;;678860;29;1216;-88
2022/02/22 00:08:15;;;;;;;;;;;22.90;40.80;;;;;;678451;29;1230;-88
2022/02/22 00:08:35;;;;;;;;;;;23.00;40.90;;;;;;678635;29;1175;-88
2022/02/22 00:08:56;;;;;;;;;;;23.00;40.90;;;;;;678345;29;1268;-88
2022/02/22 00:09:16;;;;;;;;;;;23.00;40.90;;;;;;678325;29;1322;-88
2022/02/22 00:09:37;;;;;;;;;;;23.00;41.00;;;;;;678384;29;1254;-87
2022/02/22 00:09:58;;;;;;;;;;;22.90;40.90;;;;;;678792;29;1231;-87
2022/02/22 00:10:18;;;;;;;;;;;22.90;40.80;;;;;;680382;29;1377;-89
2022/02/22 00:10:39;;;;;;;;;;;23.00;40.90;;;;;;683777;29;1050;-85
2022/02/22 00:11:00;;;;;;;;;;;22.90;40.90;;;;;;681219;29;1456;-88
2022/02/22 00:11:21;;;;;;;;;;;22.90;40.90;;;;;;681449;29;1221;-88
2022/02/22 00:11:42;;;;;;;;;;;23.00;40.90;;;;;;683348;29;1244;-87
2022/02/22 00:12:03;;;;;;;;;;;22.90;40.90;;;;;;684067;29;1108;-88
2022/02/22 00:12:23;;;;;;;;;;;22.90;40.90;;;;;;683651;29;1942;-86
2022/02/22 00:12:44;;;;;;;;;;;23.00;40.90;;;;;;683517;29;1274;-88
2022/02/22 00:13:04;;;;;;;;;;;22.90;40.90;;;;;;680663;29;1238;-88
2022/02/22 00:13:26;;;;;;;;;;;22.90;40.90;;;;;;678408;29;1277;-91
2022/02/22 00:13:47;;;;;;;;;;;22.90;40.90;;;;;;678247;29;1222;-88
2022/02/22 00:14:08;;;;;;;;;;;22.90;40.90;;;;;;678681;29;1432;-89
2022/02/22 00:14:28;;;;;;;;;;;22.90;40.90;;;;;;680850;29;851;-89
2022/02/22 00:14:49;;;;;;;;;;;22.90;42.00;;;;;;682472;28;1397;-90
2022/02/22 00:15:09;;;;;;;;;;;22.90;41.00;;;;;;682830;29;1467;-87
2022/02/22 00:15:30;;;;;;;;;;;22.90;41.00;;;;;;681130;29;1098;-87
2022/02/22 00:15:51;;;;;;;;;;;22.90;41.00;;;;;;683202;29;1352;-88
2022/02/22 00:16:12;;;;;;;;;;;22.90;40.90;;;;;;683466;29;1236;-89
2022/02/22 00:16:32;;;;;;;;;;;22.90;41.00;;;;;;681089;29;1202;-89
2022/02/22 00:16:55;;;;;;;;;;;22.90;41.00;;;;;;683508;29;1233;-88
2022/02/22 00:17:15;;;;;;;;;;;22.90;41.00;;;;;;684052;28;1394;-89
2022/02/22 00:17:39;;;;;;;;;;;22.90;41.00;;;;;;684005;28;934;-89
2022/02/22 00:18:01;;;;;;;;;;;22.90;41.00;;;;;;685326;28;843;-88
2022/02/22 00:18:22;;;;;;;;;;;23.00;41.00;;;;;;680983;29;1147;-87
2022/02/22 00:18:43;;;;;;;;;;;22.90;41.00;;;;;;680726;29;1095;-88
2022/02/22 00:19:03;;;;;;;;;;;22.90;41.00;;;;;;681705;29;1294;-88
2022/02/22 00:19:25;;;;;;;;;;;22.90;41.00;;;;;;679961;29;1329;-87
2022/02/22 00:19:45;;;;;;;;;;;22.90;41.00;;;;;;678376;29;1222;-89
2022/02/22 00:20:09;;;;;;;;;;;22.90;41.00;;;;;;676160;29;1357;-86
2022/02/22 00:20:29;;;;;;;;;;;22.90;41.10;;;;;;678859;29;1345;-88
2022/02/22 00:20:50;;;;;;;;;;;22.90;41.10;;;;;;684295;28;1293;-92
2022/02/22 00:21:12;;;;;;;;;;;22.90;41.10;;;;;;683389;29;1169;-87
2022/02/22 00:21:32;;;;;;;;;;;22.90;41.10;;;;;;680792;29;1254;-86
2022/02/22 00:21:54;;;;;;;;;;;22.90;41.10;;;;;;678319;29;1230;-87
2022/02/22 00:22:15;;;;;;;;;;;22.90;41.10;;;;;;675988;29;1159;-86
2022/02/22 00:22:38;;;;;;;;;;;22.90;41.10;;;;;;677495;29;1299;-86
2022/02/22 00:23:02;;;;;;;;;;;22.90;41.10;;;;;;676587;29;1219;-86
2022/02/22 00:23:23;;;;;;;;;;;23.00;42.30;;;;;;676863;29;1307;-88
2022/02/22 00:23:44;;;;;;;;;;;22.90;41.10;;;;;;679401;29;1143;-88
2022/02/22 00:24:04;;;;;;;;;;;22.90;41.10;;;;;;679738;29;1493;-88
2022/02/22 00:24:25;;;;;;;;;;;22.90;41.10;;;;;;675441;29;1320;-87
2022/02/22 00:24:46;;;;;;;;;;;22.90;41.10;;;;;;673738;29;1405;-88
2022/02/22 00:25:11;;;;;;;;;;;22.90;42.10;;;;;;673264;29;1175;-87
2022/02/22 00:25:32;;;;;;;;;;;22.90;41.10;;;;;;673817;29;1212;-87
2022/02/22 00:25:52;;;;;;;;;;;22.90;41.10;;;;;;672974;29;1168;-87
2022/02/22 00:26:13;;;;;;;;;;;22.90;41.10;;;;;;673699;29;1403;-84
2022/02/22 00:26:33;;;;;;;;;;;22.90;41.20;;;;;;673785;29;1196;-86
2022/02/22 00:26:54;;;;;;;;;;;22.90;41.20;;;;;;673835;29;1226;-85
2022/02/22 00:27:14;;;;;;;;;;;22.90;41.20;;;;;;673061;29;1242;-87
2022/02/22 00:27:35;;;;;;;;;;;22.90;41.20;;;;;;675694;29;737;-86
2022/02/22 00:27:55;;;;;;;;;;;22.90;41.20;;;;;;673062;29;1094;-85
2022/02/22 00:28:20;;;;;;;;;;;22.90;41.20;;;;;;675881;29;1247;-86
2022/02/22 00:28:40;;;;;;;;;;;22.90;41.20;;;;;;678048;29;1329;-88
2022/02/22 00:29:01;;;;;;;;;;;22.90;41.20;;;;;;681502;29;1127;-87
2022/02/22 00:29:21;;;;;;;;;;;22.90;41.20;;;;;;683405;29;895;-86
2022/02/22 00:29:42;;;;;;;;;;;22.90;41.20;;;;;;681415;29;1273;-84
2022/02/22 00:30:02;;;;;;;;;;;22.90;41.20;;;;;;680734;29;1254;-88
2022/02/22 00:30:23;;;;;;;;;;;22.90;41.30;;;;;;678434;29;1230;-84
2022/02/22 00:30:44;;;;;;;;;;;22.90;41.30;;;;;;677615;29;1096;-87
2022/02/22 00:31:04;;;;;;;;;;;22.90;41.30;;;;;;675520;29;1208;-88
2022/02/22 00:31:25;;;;;;;;;;;22.90;41.30;;;;;;675897;29;860;-88
2022/02/22 00:31:45;;;;;;;;;;;22.90;41.30;;;;;;675406;29;931;-88
2022/02/22 00:32:06;;;;;;;;;;;22.90;41.30;;;;;;675741;29;1106;-86
2022/02/22 00:32:27;;;;;;;;;;;22.90;41.30;;;;;;678394;29;1977;-86
2022/02/22 00:32:47;;;;;;;;;;;22.90;41.30;;;;;;680706;29;1163;-83
2022/02/22 00:33:10;;;;;;;;;;;22.90;41.30;;;;;;680820;29;789;-87
2022/02/22 00:33:30;;;;;;;;;;;22.90;41.30;;;;;;683360;29;1189;-83
2022/02/22 00:33:51;;;;;;;;;;;22.90;41.30;;;;;;681217;29;1194;-87
2022/02/22 00:34:11;;;;;;;;;;;22.90;41.40;;;;;;680740;29;1235;-84
2022/02/22 00:34:32;;;;;;;;;;;22.90;41.40;;;;;;680624;29;1320;-87
2022/02/22 00:34:52;;;;;;;;;;;22.90;41.30;;;;;;678198;29;1326;-87
2022/02/22 00:35:13;;;;;;;;;;;22.90;41.30;;;;;;677956;29;1187;-88
2022/02/22 00:35:33;;;;;;;;;;;22.90;41.40;;;;;;675559;29;1362;-88
2022/02/22 00:35:54;;;;;;;;;;;22.90;41.40;;;;;;678517;29;1212;-88
2022/02/22 00:36:15;;;;;;;;;;;22.90;41.40;;;;;;678169;29;1319;-87
2022/02/22 00:36:36;;;;;;;;;;;22.90;41.60;;;;;;678141;29;1280;-87
2022/02/22 00:36:56;;;;;;;;;;;22.90;41.40;;;;;;675410;29;1361;-88
2022/02/22 00:37:17;;;;;;;;;;;22.90;41.50;;;;;;673189;29;1516;-87
2022/02/22 00:37:38;;;;;;;;;;;22.90;41.50;;;;;;676037;29;820;-89
2022/02/22 00:37:59;;;;;;;;;;;22.90;41.40;;;;;;678189;29;806;-85
2022/02/22 00:38:20;;;;;;;;;;;22.90;41.50;;;;;;675512;29;925;-87
2022/02/22 00:38:42;;;;;;;;;;;22.90;41.50;;;;;;678568;29;1514;-88
2022/02/22 00:39:04;;;;;;;;;;;22.90;41.50;;;;;;678677;29;1298;-87
2022/02/22 00:39:25;;;;;;;;;;;22.90;41.50;;;;;;677729;29;1299;-89
2022/02/22 00:39:46;;;;;;;;;;;22.90;41.50;;;;;;678238;29;874;-89
2022/02/22 00:40:07;;;;;;;;;;;22.90;41.50;;;;;;676211;29;1255;-89
2022/02/22 00:40:28;;;;;;;;;;;22.90;41.50;;;;;;675422;29;1207;-92
2022/02/22 00:40:48;;;;;;;;;;;22.90;41.60;;;;;;678671;29;1408;-90
2022/02/22 00:41:09;;;;;;;;;;;22.90;41.50;;;;;;681178;29;1215;-89
2022/02/22 00:41:30;;;;;;;;;;;22.90;41.50;;;;;;680737;29;875;-89
2022/02/22 00:41:50;;;;;;;;;;;22.90;41.50;;;;;;681049;29;1555;-89
2022/02/22 00:42:11;;;;;;;;;;;22.90;41.50;;;;;;680721;29;1211;-89
2022/02/22 00:42:32;;;;;;;;;;;22.90;41.50;;;;;;677960;29;1238;-88
2022/02/22 00:42:53;;;;;;;;;;;22.90;41.50;;;;;;675502;29;1374;-87
2022/02/22 00:43:13;;;;;;;;;;;22.90;41.60;;;;;;675577;29;1172;-89
2022/02/22 00:43:34;;;;;;;;;;;22.90;41.50;;;;;;675862;29;1248;-90
2022/02/22 00:43:54;;;;;;;;;;;22.90;41.50;;;;;;675508;29;1468;-91
2022/02/22 00:44:15;;;;;;;;;;;22.90;41.50;;;;;;675954;29;1110;-90
2022/02/22 00:44:36;;;;;;;;;;;22.90;41.50;;;;;;675562;29;1242;-90
2022/02/22 00:44:56;;;;;;;;;;;22.90;41.50;;;;;;675056;29;1315;-88
2022/02/22 00:45:17;;;;;;;;;;;22.90;41.50;;;;;;675935;29;1183;-90
2022/02/22 00:45:37;;;;;;;;;;;22.90;41.50;;;;;;675496;29;1222;-88
2022/02/22 00:45:58;;;;;;;;;;;22.90;41.60;;;;;;675448;29;829;-85
2022/02/22 00:46:18;;;;;;;;;;;22.90;41.60;;;;;;673254;29;1113;-91
2022/02/22 00:46:39;;;;;;;;;;;22.90;41.60;;;;;;673043;29;1575;-90
2022/02/22 00:47:00;;;;;;;;;;;22.90;41.60;;;;;;678351;29;1207;-88
2022/02/22 00:47:20;;;;;;;;;;;22.90;41.60;;;;;;678422;29;1238;-89
2022/02/22 00:47:41;;;;;;;;;;;22.90;41.60;;;;;;677997;29;1306;-87
2022/02/22 00:48:01;;;;;;;;;;;22.90;41.60;;;;;;678249;29;1292;-90
2022/02/22 00:48:25;;;;;;;;;;;22.90;41.60;;;;;;678350;29;1199;-85
2022/02/22 00:48:45;;;;;;;;;;;22.90;41.60;;;;;;677516;29;1395;-89
2022/02/22 00:49:08;;;;;;;;;;;22.90;41.60;;;;;;675472;29;1200;-88
2022/02/22 00:49:29;;;;;;;;;;;22.90;41.60;;;;;;675407;29;1319;-89
2022/02/22 00:49:49;;;;;;;;;;;22.90;41.60;;;;;;675480;29;1399;-87
2022/02/22 00:50:10;;;;;;;;;;;22.80;41.60;;;;;;676235;29;1226;-87
2022/02/22 00:50:30;;;;;;;;;;;22.90;42.20;;;;;;677953;29;1196;-88
2022/02/22 00:50:51;;;;;;;;;;;22.90;41.60;;;;;;677817;29;1227;-87
2022/02/22 00:51:12;;;;;;;;;;;22.90;41.60;;;;;;675377;29;1234;-87
2022/02/22 00:51:32;;;;;;;;;;;22.90;41.70;;;;;;675855;29;757;-89
2022/02/22 00:51:53;;;;;;;;;;;22.90;41.60;;;;;;678539;29;789;-88
2022/02/22 00:52:13;;;;;;;;;;;22.90;41.70;;;;;;677936;29;1279;-88
2022/02/22 00:52:34;;;;;;;;;;;22.90;41.70;;;;;;675649;29;1891;-88
2022/02/22 00:52:56;;;;;;;;;;;22.90;41.70;;;;;;675777;29;1158;-87
2022/02/22 00:53:16;;;;;;;;;;;22.90;41.70;;;;;;678183;29;1154;-85
2022/02/22 00:53:37;;;;;;;;;;;22.90;41.70;;;;;;678149;29;1377;-88
2022/02/22 00:53:57;;;;;;;;;;;22.90;41.70;;;;;;678015;29;1108;-86
2022/02/22 00:54:18;;;;;;;;;;;22.90;41.70;;;;;;678442;29;1317;-87
2022/02/22 00:54:39;;;;;;;;;;;22.80;41.60;;;;;;681022;29;1282;-87
2022/02/22 00:54:59;;;;;;;;;;;22.80;41.60;;;;;;680730;29;1347;-89
2022/02/22 00:55:20;;;;;;;;;;;22.90;41.70;;;;;;680754;29;1504;-90
2022/02/22 00:55:40;;;;;;;;;;;22.90;41.70;;;;;;677726;29;1243;-89
2022/02/22 00:56:01;;;;;;;;;;;22.90;41.70;;;;;;675466;29;1317;-89
2022/02/22 00:56:21;;;;;;;;;;;22.80;41.70;;;;;;672969;29;1219;-90
2022/02/22 00:56:42;;;;;;;;;;;22.80;41.70;;;;;;673085;29;821;-89
2022/02/22 00:57:03;;;;;;;;;;;22.90;41.70;;;;;;673067;29;1387;-87
2022/02/22 00:57:23;;;;;;;;;;;22.90;41.70;;;;;;675775;29;1092;-88
2022/02/22 00:57:45;;;;;;;;;;;22.90;41.70;;;;;;678326;29;1355;-89
2022/02/22 00:58:06;;;;;;;;;;;22.90;41.70;;;;;;678351;29;1469;-89
2022/02/22 00:58:26;;;;;;;;;;;22.90;42.80;;;;;;683196;29;1528;-89
2022/02/22 00:58:47;;;;;;;;;;;22.90;41.70;;;;;;681219;29;1089;-89
2022/02/22 00:59:07;;;;;;;;;;;22.90;41.70;;;;;;680520;29;1396;-89
2022/02/22 00:59:28;;;;;;;;;;;22.80;41.60;;;;;;678078;29;1178;-88
2022/02/22 00:59:48;;;;;;;;;;;22.90;41.70;;;;;;678414;29;1298;-89
2022/02/22 01:00:09;;;;;;;;;;;22.90;41.70;;;;;;675300;29;1109;-89
2022/02/22 01:00:30;;;;;;;;;;;22.90;41.80;;;;;;675571;29;1350;-89
2022/02/22 01:00:50;;;;;;;;;;;22.90;41.70;;;;;;675870;29;1345;-88
2022/02/22 01:01:14;;;;;;;;;;;22.80;41.60;;;;;;678027;29;855;-90
2022/02/22 01:01:34;;;;;;;;;;;22.80;41.60;;;;;;680694;29;852;-89
2022/02/22 01:01:55;;;;;;;;;;;22.90;41.70;;;;;;680644;29;1331;-88
2022/02/22 01:02:15;;;;;;;;;;;22.80;41.60;;;;;;681442;29;1080;-89
2022/02/22 01:02:36;;;;;;;;;;;22.90;41.70;;;;;;684053;28;1212;-86
2022/02/22 01:02:57;;;;;;;;;;;22.80;41.70;;;;;;683343;29;1320;-88
2022/02/22 01:03:17;;;;;;;;;;;22.90;41.70;;;;;;683135;29;1268;-89
2022/02/22 01:03:38;;;;;;;;;;;22.90;41.80;;;;;;680650;29;1080;-88
2022/02/22 01:03:59;;;;;;;;;;;22.90;41.70;;;;;;680804;29;1099;-89
2022/02/22 01:04:19;;;;;;;;;;;22.80;41.60;;;;;;683411;29;1359;-89
2022/02/22 01:04:40;;;;;;;;;;;22.90;41.70;;;;;;680964;29;1323;-87
2022/02/22 01:05:00;;;;;;;;;;;22.90;41.70;;;;;;683285;29;827;-89
2022/02/22 01:05:21;;;;;;;;;;;22.80;41.60;;;;;;680706;29;1254;-89
2022/02/22 01:05:42;;;;;;;;;;;22.90;41.70;;;;;;678285;29;1220;-90
2022/02/22 01:06:02;;;;;;;;;;;22.80;41.60;;;;;;677668;29;1370;-89
2022/02/22 01:06:23;;;;;;;;;;;22.90;41.70;;;;;;675842;29;1203;-89
2022/02/22 01:06:44;;;;;;;;;;;22.90;41.70;;;;;;678100;29;839;-89
2022/02/22 01:07:04;;;;;;;;;;;22.80;41.60;;;;;;680866;29;1403;-89
2022/02/22 01:07:25;;;;;;;;;;;22.80;41.70;;;;;;680845;29;1333;-90
2022/02/22 01:07:46;;;;;;;;;;;22.80;41.80;;;;;;680832;29;1269;-90
2022/02/22 01:08:06;;;;;;;;;;;22.80;41.80;;;;;;680772;29;879;-90
2022/02/22 01:08:27;;;;;;;;;;;22.80;41.80;;;;;;678023;29;1274;-90
2022/02/22 01:08:47;;;;;;;;;;;22.80;41.90;;;;;;677901;29;1194;-91
2022/02/22 01:09:08;;;;;;;;;;;22.80;41.80;;;;;;675609;29;1237;-92
2022/02/22 01:09:28;;;;;;;;;;;22.80;41.90;;;;;;675676;29;1231;-90
2022/02/22 01:09:49;;;;;;;;;;;22.80;41.80;;;;;;675540;29;1076;-90
2022/02/22 01:10:10;;;;;;;;;;;22.80;41.90;;;;;;673037;29;1334;-88
2022/02/22 01:10:30;;;;;;;;;;;22.80;42.00;;;;;;675294;29;1419;-90
2022/02/22 01:10:51;;;;;;;;;;;22.80;41.90;;;;;;675949;29;1281;-90
2022/02/22 01:11:11;;;;;;;;;;;22.80;41.90;;;;;;675772;29;1192;-92
2022/02/22 01:11:32;;;;;;;;;;;22.80;41.90;;;;;;675733;29;1199;-87
2022/02/22 01:11:53;;;;;;;;;;;22.80;41.90;;;;;;678321;29;1310;-92
2022/02/22 01:12:15;;;;;;;;;;;22.80;42.00;;;;;;677380;29;1071;-91
2022/02/22 01:12:35;;;;;;;;;;;22.70;41.90;;;;;;675160;29;1980;-90
2022/02/22 01:12:56;;;;;;;;;;;22.70;41.90;;;;;;675480;29;1205;-92
2022/02/22 01:13:16;;;;;;;;;;;22.80;42.00;;;;;;675584;29;856;-90
2022/02/22 01:13:37;;;;;;;;;;;22.80;42.00;;;;;;675798;29;1448;-90
2022/02/22 01:13:58;;;;;;;;;;;22.80;42.00;;;;;;677957;29;1211;-91
2022/02/22 01:14:18;;;;;;;;;;;22.80;42.00;;;;;;678145;29;1143;-88
2022/02/22 01:14:39;;;;;;;;;;;22.80;42.10;;;;;;678049;29;1400;-89
2022/02/22 01:15:00;;;;;;;;;;;22.70;42.00;;;;;;678090;29;808;-91
2022/02/22 01:15:21;;;;;;;;;;;22.70;42.00;;;;;;678542;29;1364;-91
2022/02/22 01:15:41;;;;;;;;;;;22.70;42.00;;;;;;677972;29;1208;-90
2022/02/22 01:16:02;;;;;;;;;;;22.70;42.00;;;;;;678021;29;1305;-89
2022/02/22 01:16:23;;;;;;;;;;;22.70;42.00;;;;;;678263;29;851;-90
2022/02/22 01:16:43;;;;;;;;;;;22.70;42.10;;;;;;678197;29;792;-90
2022/02/22 01:17:04;;;;;;;;;;;22.70;42.00;;;;;;678283;29;1319;-90
2022/02/22 01:17:25;;;;;;;;;;;22.70;42.10;;;;;;678073;29;1198;-89
2022/02/22 01:17:45;;;;;;;;;;;22.70;42.10;;;;;;678353;29;1343;-90
2022/02/22 01:18:06;;;;;;;;;;;22.70;42.10;;;;;;678062;29;1231;-89
2022/02/22 01:18:26;;;;;;;;;;;22.70;42.10;;;;;;678006;29;1390;-92
2022/02/22 01:18:47;;;;;;;;;;;22.70;42.10;;;;;;677600;29;1350;-91
2022/02/22 01:19:08;;;;;;;;;;;22.70;42.10;;;;;;677589;29;934;-91
2022/02/22 01:19:28;;;;;;;;;;;22.70;42.10;;;;;;677672;29;1159;-88
2022/02/22 01:19:52;;;;;;;;;;;22.70;42.10;;;;;;675758;29;1207;-90
2022/02/22 01:20:13;;;;;;;;;;;22.70;42.10;;;;;;683336;29;1283;-90
2022/02/22 01:20:33;;;;;;;;;;;22.70;42.10;;;;;;683241;29;1155;-89
2022/02/22 01:20:54;;;;;;;;;;;22.70;42.10;;;;;;681395;29;1395;-91
2022/02/22 01:21:14;;;;;;;;;;;22.70;42.10;;;;;;681291;29;1335;-91
2022/02/22 01:21:35;;;;;;;;;;;22.70;42.10;;;;;;681026;29;1171;-87
2022/02/22 01:21:59;;;;;;;;;;;22.70;42.10;;;;;;683141;29;776;-89
2022/02/22 01:22:20;;;;;;;;;;;22.70;42.10;;;;;;680682;29;1394;-87
2022/02/22 01:22:41;;;;;;;;;;;22.70;42.10;;;;;;679769;29;1177;-89
2022/02/22 01:23:01;;;;;;;;;;;22.70;42.10;;;;;;684106;28;1337;-91
2022/02/22 01:23:22;;;;;;;;;;;22.70;42.10;;;;;;683448;29;1194;-89
2022/02/22 01:23:43;;;;;;;;;;;22.60;42.00;;;;;;680617;29;1203;-91
2022/02/22 01:24:05;;;;;;;;;;;22.70;42.10;;;;;;680656;29;1126;-88
2022/02/22 01:24:26;;;;;;;;;;;22.70;42.10;;;;;;680564;29;1136;-90
2022/02/22 01:24:46;;;;;;;;;;;22.70;42.20;;;;;;679793;29;1230;-88
2022/02/22 01:25:08;;;;;;;;;;;22.70;42.10;;;;;;678042;29;943;-86
2022/02/22 01:25:28;;;;;;;;;;;22.60;42.00;;;;;;681264;29;1202;-89
2022/02/22 01:25:50;;;;;;;;;;;22.60;42.00;;;;;;682715;29;1373;-91
2022/02/22 01:26:11;;;;;;;;;;;22.60;42.00;;;;;;680430;29;1345;-87
2022/02/22 01:26:32;;;;;;;;;;;22.70;42.10;;;;;;681090;29;1217;-90
2022/02/22 01:26:52;;;;;;;;;;;22.60;42.00;;;;;;680705;29;1366;-88
2022/02/22 01:27:13;;;;;;;;;;;22.60;42.10;;;;;;677441;29;1406;-87
2022/02/22 01:27:34;;;;;;;;;;;22.60;42.10;;;;;;673182;29;1423;-85
2022/02/22 01:27:54;;;;;;;;;;;22.60;42.10;;;;;;675395;29;1272;-88
2022/02/22 01:28:15;;;;;;;;;;;22.60;42.00;;;;;;675910;29;868;-90
2022/02/22 01:28:36;;;;;;;;;;;22.60;42.10;;;;;;678434;29;773;-89
2022/02/22 01:28:58;;;;;;;;;;;22.60;42.10;;;;;;678347;29;1123;-92
2022/02/22 01:29:19;;;;;;;;;;;22.60;42.10;;;;;;678741;29;1244;-91
2022/02/22 01:29:39;;;;;;;;;;;22.60;42.10;;;;;;681244;29;1324;-91
2022/02/22 01:30:00;;;;;;;;;;;22.60;42.10;;;;;;680651;29;1089;-91
2022/02/22 01:30:21;;;;;;;;;;;22.60;42.10;;;;;;680615;29;1350;-84
2022/02/22 01:30:43;;;;;;;;;;;22.60;42.10;;;;;;680986;29;1223;-90
2022/02/22 01:31:04;;;;;;;;;;;22.60;42.10;;;;;;683340;29;800;-89
2022/02/22 01:31:28;;;;;;;;;;;22.60;42.20;;;;;;681234;29;1166;-89
2022/02/22 01:31:48;;;;;;;;;;;22.60;42.20;;;;;;680832;29;1387;-90
2022/02/22 01:32:09;;;;;;;;;;;22.60;42.10;;;;;;677972;29;1434;-91
2022/02/22 01:32:29;;;;;;;;;;;22.60;42.10;;;;;;676178;29;1972;-90
2022/02/22 01:32:50;;;;;;;;;;;22.60;42.10;;;;;;675547;29;1473;-89
2022/02/22 01:33:10;;;;;;;;;;;22.60;42.20;;;;;;676144;29;848;-89
2022/02/22 01:33:31;;;;;;;;;;;22.60;42.10;;;;;;678304;29;832;-91
2022/02/22 01:33:55;;;;;;;;;;;22.60;42.20;;;;;;680993;29;872;-89
2022/02/22 01:34:15;;;;;;;;;;;22.60;42.20;;;;;;683962;28;1435;-89
2022/02/22 01:34:36;;;;;;;;;;;22.60;42.30;;;;;;683252;29;1470;-91
2022/02/22 01:34:56;;;;;;;;;;;22.60;42.30;;;;;;683368;29;1009;-89
2022/02/22 01:35:17;;;;;;;;;;;22.60;42.30;;;;;;681374;29;1332;-89
2022/02/22 01:35:39;;;;;;;;;;;22.60;42.30;;;;;;680589;29;1341;-89
2022/02/22 01:35:59;;;;;;;;;;;22.60;42.40;;;;;;677975;29;1404;-88
2022/02/22 01:36:21;;;;;;;;;;;22.60;42.50;;;;;;675863;29;1345;-89
2022/02/22 01:36:45;;;;;;;;;;;22.60;42.50;;;;;;674598;29;1629;-85
2022/02/22 01:37:05;;;;;;;;;;;22.60;42.40;;;;;;676277;29;1447;-88
2022/02/22 01:37:26;;;;;;;;;;;22.60;42.50;;;;;;676393;29;1277;-89
2022/02/22 01:37:47;;;;;;;;;;;22.60;42.50;;;;;;679039;29;831;-89
2022/02/22 01:38:07;;;;;;;;;;;22.60;42.50;;;;;;681418;29;1408;-88
2022/02/22 01:38:28;;;;;;;;;;;22.60;42.50;;;;;;682444;29;1400;-89
2022/02/22 01:38:49;;;;;;;;;;;22.60;43.60;;;;;;681047;29;851;-85
2022/02/22 01:39:09;;;;;;;;;;;22.60;42.50;;;;;;683549;28;1337;-87
2022/02/22 01:39:30;;;;;;;;;;;22.60;42.50;;;;;;685964;28;783;-88
2022/02/22 01:39:51;;;;;;;;;;;22.60;42.50;;;;;;683542;28;1324;-89
2022/02/22 01:40:12;;;;;;;;;;;22.60;42.50;;;;;;685755;28;1439;-91
2022/02/22 01:40:32;;;;;;;;;;;22.60;42.50;;;;;;682600;29;1358;-88
2022/02/22 01:40:55;;;;;;;;;;;22.70;42.50;;;;;;683372;29;938;-90
2022/02/22 01:41:15;;;;;;;;;;;22.70;42.50;;;;;;680599;29;1257;-91
2022/02/22 01:41:38;;;;;;;;;;;22.60;42.40;;;;;;678040;29;1264;-90
2022/02/22 01:42:00;;;;;;;;;;;22.60;43.60;;;;;;680663;29;942;-89
2022/02/22 01:42:21;;;;;;;;;;;22.60;42.50;;;;;;678974;29;1390;-83
2022/02/22 01:42:41;;;;;;;;;;;22.60;42.40;;;;;;682224;29;1360;-87
2022/02/22 01:43:02;;;;;;;;;;;22.60;42.40;;;;;;682520;29;1456;-85
2022/02/22 01:43:23;;;;;;;;;;;22.60;42.40;;;;;;681098;29;1205;-84
2022/02/22 01:43:43;;;;;;;;;;;22.60;42.40;;;;;;683294;29;938;-87
2022/02/22 01:44:04;;;;;;;;;;;22.60;42.80;;;;;;680351;29;1099;-85
2022/02/22 01:44:25;;;;;;;;;;;22.60;43.00;;;;;;683372;29;792;-86
2022/02/22 01:44:46;;;;;;;;;;;22.70;43.50;;;;;;680525;29;1245;-84
2022/02/22 01:45:07;;;;;;;;;;;22.70;43.60;;;;;;678265;29;1363;-88
2022/02/22 01:45:28;;;;;;;;;;;22.70;43.40;;;;;;677989;29;1309;-86
2022/02/22 01:45:49;;;;;;;;;;;22.70;43.30;;;;;;680578;29;1237;-87
2022/02/22 01:46:09;;;;;;;;;;;22.70;43.20;;;;;;680351;29;1191;-86
2022/02/22 01:46:30;;;;;;;;;;;22.70;43.20;;;;;;679958;29;1389;-87
2022/02/22 01:46:54;;;;;;;;;;;22.70;43.30;;;;;;683160;29;1469;-86
2022/02/22 01:47:18;;;;;;;;;;;22.70;43.30;;;;;;680443;29;1305;-88
2022/02/22 01:47:38;;;;;;;;;;;22.70;43.20;;;;;;681555;29;1426;-88
2022/02/22 01:47:59;;;;;;;;;;;22.70;43.30;;;;;;682819;29;1267;-86
2022/02/22 01:48:20;;;;;;;;;;;22.70;43.20;;;;;;682768;29;1362;-87
2022/02/22 01:48:41;;;;;;;;;;;22.70;43.20;;;;;;679340;29;1327;-88
2022/02/22 01:49:01;;;;;;;;;;;22.70;43.20;;;;;;677923;29;765;-87
2022/02/22 01:49:22;;;;;;;;;;;22.70;43.10;;;;;;677918;29;1484;-88
2022/02/22 01:49:43;;;;;;;;;;;22.70;43.10;;;;;;680736;29;1462;-88
2022/02/22 01:50:04;;;;;;;;;;;22.70;43.00;;;;;;683663;28;1210;-89
2022/02/22 01:50:25;;;;;;;;;;;22.70;43.10;;;;;;683232;29;1505;-87
2022/02/22 01:50:45;;;;;;;;;;;22.70;43.00;;;;;;680634;29;1202;-89
2022/02/22 01:51:06;;;;;;;;;;;22.70;43.00;;;;;;677107;29;1566;-87
2022/02/22 01:51:27;;;;;;;;;;;22.70;43.00;;;;;;677792;29;1447;-85
2022/02/22 01:51:47;;;;;;;;;;;22.70;43.00;;;;;;678252;29;1124;-89
2022/02/22 01:52:08;;;;;;;;;;;22.70;42.90;;;;;;680345;29;1383;-87
2022/02/22 01:52:28;;;;;;;;;;;22.70;42.90;;;;;;680433;29;1902;-88
2022/02/22 01:52:51;;;;;;;;;;;22.70;42.90;;;;;;680175;29;1361;-86
2022/02/22 01:53:14;;;;;;;;;;;22.70;42.90;;;;;;677801;29;1275;-86
2022/02/22 01:53:34;;;;;;;;;;;22.70;42.90;;;;;;677883;29;1385;-88
2022/02/22 01:53:55;;;;;;;;;;;22.70;42.80;;;;;;676152;29;1223;-85
2022/02/22 01:54:16;;;;;;;;;;;22.70;42.80;;;;;;677856;29;1220;-88
2022/02/22 01:54:37;;;;;;;;;;;22.70;42.80;;;;;;675256;29;1501;-87
2022/02/22 01:54:58;;;;;;;;;;;22.70;42.80;;;;;;675908;29;1373;-86
2022/02/22 01:55:18;;;;;;;;;;;22.70;42.80;;;;;;678219;29;1325;-86
2022/02/22 01:55:39;;;;;;;;;;;22.70;42.80;;;;;;677845;29;1434;-88
2022/02/22 01:56:00;;;;;;;;;;;22.70;42.80;;;;;;678035;29;925;-86
2022/02/22 01:56:22;;;;;;;;;;;22.70;42.80;;;;;;678047;29;1202;-88
2022/02/22 01:56:42;;;;;;;;;;;22.70;42.80;;;;;;680547;29;1262;-88
2022/02/22 01:57:03;;;;;;;;;;;22.70;42.80;;;;;;682047;29;1282;-86
2022/02/22 01:57:24;;;;;;;;;;;22.70;42.90;;;;;;683123;29;1271;-87
2022/02/22 01:57:45;;;;;;;;;;;22.70;42.80;;;;;;683269;29;1332;-88
2022/02/22 01:58:07;;;;;;;;;;;22.70;42.80;;;;;;683733;28;1262;-88
2022/02/22 01:58:28;;;;;;;;;;;22.70;42.80;;;;;;683069;29;1230;-87
2022/02/22 01:58:49;;;;;;;;;;;22.70;42.80;;;;;;680588;29;1465;-88
2022/02/22 01:59:10;;;;;;;;;;;22.70;42.80;;;;;;680308;29;1354;-88
2022/02/22 01:59:31;;;;;;;;;;;22.70;42.80;;;;;;677808;29;1096;-88
2022/02/22 01:59:52;;;;;;;;;;;22.70;42.80;;;;;;675870;29;1373;-88
2022/02/22 02:00:13;;;;;;;;;;;22.70;42.80;;;;;;678456;29;1250;-87
2022/02/22 02:00:34;;;;;;;;;;;22.70;42.80;;;;;;681050;29;1552;-88
2022/02/22 02:00:54;;;;;;;;;;;22.70;42.70;;;;;;683235;29;1111;-89
2022/02/22 02:01:15;;;;;;;;;;;22.70;42.80;;;;;;680475;29;1205;-90
2022/02/22 02:01:36;;;;;;;;;;;22.70;42.70;;;;;;680496;29;1210;-88
2022/02/22 02:01:57;;;;;;;;;;;22.70;42.70;;;;;;680416;29;1536;-89
2022/02/22 02:02:17;;;;;;;;;;;22.70;42.80;;;;;;681007;29;1326;-89
2022/02/22 02:02:38;;;;;;;;;;;22.70;42.70;;;;;;684223;28;879;-89
2022/02/22 02:02:59;;;;;;;;;;;22.70;42.70;;;;;;683209;29;1189;-88
2022/02/22 02:03:19;;;;;;;;;;;22.70;42.60;;;;;;683639;28;903;-87
2022/02/22 02:03:40;;;;;;;;;;;22.70;42.70;;;;;;683147;29;1219;-88
2022/02/22 02:04:05;;;;;;;;;;;22.70;42.60;;;;;;680535;29;1247;-88
2022/02/22 02:04:29;;;;;;;;;;;22.70;42.70;;;;;;677697;29;1545;-88
2022/02/22 02:04:52;;;;;;;;;;;22.70;42.60;;;;;;679350;29;1648;-89
2022/02/22 02:05:13;;;;;;;;;;;22.70;42.60;;;;;;680570;29;1352;-89
2022/02/22 02:05:35;;;;;;;;;;;22.70;42.70;;;;;;680552;29;1272;-88
2022/02/22 02:05:55;;;;;;;;;;;22.70;42.70;;;;;;680608;29;1531;-87